sensor_id;sensor_type;location;lat;lon;timestamp;P1;durP1;ratioP1;P2;durP2;ratioP2
21862;SDS011;11096;51.338;12.524;2023-05-10T00:02:06;5.35;;;3.95;;
21862;SDS011;11096;51.338;12.524;2023-05-10T00:04:32;6.78;;;4.28;;
21862;SDS011;11096;51.338;12.524;2023-05-10T00:06:58;5.70;;;3.70;;
21862;SDS011;11096;51.338;12.524;2023-05-10T00:09:23;5.47;;;3.70;;
21862;SDS011;11096;51.338;12.524;2023-05-10T00:11:49;4.68;;;3.60;;
21862;SDS011;11096;51.338;12.524;2023-05-10T00:14:14;6.93;;;4.22;;
21862;SDS011;11096;51.338;12.524;2023-05-10T00:16:39;5.18;;;3.30;;
21862;SDS011;11096;51.338;12.524;2023-05-10T00:19:05;5.38;;;4.00;;
21862;SDS011;11096;51.338;12.524;2023-05-10T00:21:31;7.65;;;4.40;;
21862;SDS011;11096;51.338;12.524;2023-05-10T00:23:57;6.43;;;3.92;;
21862;SDS011;11096;51.338;12.524;2023-05-10T00:26:22;4.88;;;4.20;;
21862;SDS011;11096;51.338;12.524;2023-05-10T00:28:48;4.10;;;3.70;;
21862;SDS011;11096;51.338;12.524;2023-05-10T00:31:13;5.97;;;4.25;;
21862;SDS011;11096;51.338;12.524;2023-05-10T00:33:39;5.82;;;4.20;;
21862;SDS011;11096;51.338;12.524;2023-05-10T00:36:05;5.07;;;3.55;;
21862;SDS011;11096;51.338;12.524;2023-05-10T00:38:32;5.07;;;3.70;;
21862;SDS011;11096;51.338;12.524;2023-05-10T00:40:58;4.68;;;3.53;;
21862;SDS011;11096;51.338;12.524;2023-05-10T00:43:23;5.07;;;3.80;;
21862;SDS011;11096;51.338;12.524;2023-05-10T00:45:49;4.72;;;3.80;;
21862;SDS011;11096;51.338;12.524;2023-05-10T00:48:14;5.50;;;3.85;;
21862;SDS011;11096;51.338;12.524;2023-05-10T00:50:40;5.35;;;4.28;;
21862;SDS011;11096;51.338;12.524;2023-05-10T00:53:05;5.78;;;3.92;;
21862;SDS011;11096;51.338;12.524;2023-05-10T00:55:31;5.55;;;3.80;;
21862;SDS011;11096;51.338;12.524;2023-05-10T00:57:56;7.25;;;4.05;;
21862;SDS011;11096;51.338;12.524;2023-05-10T01:00:22;6.80;;;4.40;;
21862;SDS011;11096;51.338;12.524;2023-05-10T01:02:48;4.75;;;3.42;;
21862;SDS011;11096;51.338;12.524;2023-05-10T01:05:14;5.70;;;3.78;;
21862;SDS011;11096;51.338;12.524;2023-05-10T01:07:40;5.53;;;3.67;;
21862;SDS011;11096;51.338;12.524;2023-05-10T01:10:06;6.20;;;3.90;;
21862;SDS011;11096;51.338;12.524;2023-05-10T01:12:33;7.30;;;4.43;;
21862;SDS011;11096;51.338;12.524;2023-05-10T01:15:01;4.60;;;3.60;;
21862;SDS011;11096;51.338;12.524;2023-05-10T01:17:27;7.18;;;3.95;;
21862;SDS011;11096;51.338;12.524;2023-05-10T01:19:53;8.05;;;4.00;;
21862;SDS011;11096;51.338;12.524;2023-05-10T01:27:56;7.10;;;4.03;;
21862;SDS011;11096;51.338;12.524;2023-05-10T01:38:42;5.53;;;4.00;;
21862;SDS011;11096;51.338;12.524;2023-05-10T01:41:25;6.75;;;3.63;;
21862;SDS011;11096;51.338;12.524;2023-05-10T01:46:43;5.35;;;4.10;;
21862;SDS011;11096;51.338;12.524;2023-05-10T01:49:18;9.25;;;3.80;;
21862;SDS011;11096;51.338;12.524;2023-05-10T01:51:50;5.38;;;3.92;;
21862;SDS011;11096;51.338;12.524;2023-05-10T01:54:19;5.82;;;3.92;;
21862;SDS011;11096;51.338;12.524;2023-05-10T01:56:55;5.82;;;3.75;;
21862;SDS011;11096;51.338;12.524;2023-05-10T01:59:24;6.05;;;3.78;;
21862;SDS011;11096;51.338;12.524;2023-05-10T02:01:54;6.65;;;3.72;;
21862;SDS011;11096;51.338;12.524;2023-05-10T02:04:23;5.35;;;3.60;;
21862;SDS011;11096;51.338;12.524;2023-05-10T02:06:50;8.05;;;3.70;;
21862;SDS011;11096;51.338;12.524;2023-05-10T02:09:18;5.72;;;4.38;;
21862;SDS011;11096;51.338;12.524;2023-05-10T02:11:45;5.82;;;3.35;;
21862;SDS011;11096;51.338;12.524;2023-05-10T02:14:14;5.25;;;4.03;;
21862;SDS011;11096;51.338;12.524;2023-05-10T02:16:42;5.55;;;3.45;;
21862;SDS011;11096;51.338;12.524;2023-05-10T02:19:08;6.43;;;3.53;;
21862;SDS011;11096;51.338;12.524;2023-05-10T02:21:35;6.40;;;4.40;;
21862;SDS011;11096;51.338;12.524;2023-05-10T02:24:04;5.95;;;3.78;;
21862;SDS011;11096;51.338;12.524;2023-05-10T02:26:31;5.43;;;3.65;;
21862;SDS011;11096;51.338;12.524;2023-05-10T02:28:58;6.82;;;4.00;;
21862;SDS011;11096;51.338;12.524;2023-05-10T02:31:25;4.68;;;3.58;;
21862;SDS011;11096;51.338;12.524;2023-05-10T02:33:51;4.13;;;3.45;;
21862;SDS011;11096;51.338;12.524;2023-05-10T02:36:17;5.15;;;3.72;;
21862;SDS011;11096;51.338;12.524;2023-05-10T02:38:46;3.90;;;3.35;;
21862;SDS011;11096;51.338;12.524;2023-05-10T02:41:12;9.40;;;3.92;;
21862;SDS011;11096;51.338;12.524;2023-05-10T02:43:39;5.18;;;4.03;;
21862;SDS011;11096;51.338;12.524;2023-05-10T02:46:05;9.30;;;3.95;;
21862;SDS011;11096;51.338;12.524;2023-05-10T02:48:31;7.35;;;4.00;;
21862;SDS011;11096;51.338;12.524;2023-05-10T02:50:59;7.57;;;4.10;;
21862;SDS011;11096;51.338;12.524;2023-05-10T02:53:33;5.80;;;3.80;;
21862;SDS011;11096;51.338;12.524;2023-05-10T02:56:14;5.45;;;3.58;;
21862;SDS011;11096;51.338;12.524;2023-05-10T02:58:44;7.25;;;3.80;;
21862;SDS011;11096;51.338;12.524;2023-05-10T03:01:11;4.32;;;3.65;;
21862;SDS011;11096;51.338;12.524;2023-05-10T03:03:36;5.63;;;3.47;;
21862;SDS011;11096;51.338;12.524;2023-05-10T03:06:01;5.55;;;4.05;;
21862;SDS011;11096;51.338;12.524;2023-05-10T03:08:27;6.45;;;3.55;;
21862;SDS011;11096;51.338;12.524;2023-05-10T03:10:57;4.70;;;3.53;;
21862;SDS011;11096;51.338;12.524;2023-05-10T03:16:21;5.68;;;4.10;;
21862;SDS011;11096;51.338;12.524;2023-05-10T03:21:31;6.93;;;4.13;;
21862;SDS011;11096;51.338;12.524;2023-05-10T03:24:07;5.78;;;3.65;;
21862;SDS011;11096;51.338;12.524;2023-05-10T03:26:34;7.70;;;3.85;;
21862;SDS011;11096;51.338;12.524;2023-05-10T03:29:02;8.85;;;4.20;;
21862;SDS011;11096;51.338;12.524;2023-05-10T03:31:29;8.50;;;3.47;;
21862;SDS011;11096;51.338;12.524;2023-05-10T03:33:54;7.05;;;4.03;;
21862;SDS011;11096;51.338;12.524;2023-05-10T03:36:20;7.40;;;4.38;;
21862;SDS011;11096;51.338;12.524;2023-05-10T03:38:45;5.88;;;3.67;;
21862;SDS011;11096;51.338;12.524;2023-05-10T03:41:11;5.13;;;3.95;;
21862;SDS011;11096;51.338;12.524;2023-05-10T03:43:36;6.03;;;3.97;;
21862;SDS011;11096;51.338;12.524;2023-05-10T03:46:03;5.95;;;4.18;;
21862;SDS011;11096;51.338;12.524;2023-05-10T03:48:29;11.38;;;3.90;;
21862;SDS011;11096;51.338;12.524;2023-05-10T03:50:55;6.35;;;3.88;;
21862;SDS011;11096;51.338;12.524;2023-05-10T03:53:20;7.40;;;3.85;;
21862;SDS011;11096;51.338;12.524;2023-05-10T03:55:46;6.78;;;4.10;;
21862;SDS011;11096;51.338;12.524;2023-05-10T03:58:11;5.15;;;3.58;;
21862;SDS011;11096;51.338;12.524;2023-05-10T04:00:37;5.43;;;4.00;;
21862;SDS011;11096;51.338;12.524;2023-05-10T04:03:08;5.63;;;3.55;;
21862;SDS011;11096;51.338;12.524;2023-05-10T04:05:34;7.53;;;4.10;;
21862;SDS011;11096;51.338;12.524;2023-05-10T04:08:00;7.35;;;4.05;;
21862;SDS011;11096;51.338;12.524;2023-05-10T04:10:25;9.35;;;4.03;;
21862;SDS011;11096;51.338;12.524;2023-05-10T04:12:50;5.18;;;3.90;;
21862;SDS011;11096;51.338;12.524;2023-05-10T04:15:16;6.95;;;3.92;;
21862;SDS011;11096;51.338;12.524;2023-05-10T04:17:41;4.90;;;3.45;;
21862;SDS011;11096;51.338;12.524;2023-05-10T04:20:07;5.13;;;3.60;;
21862;SDS011;11096;51.338;12.524;2023-05-10T04:22:33;9.15;;;3.70;;
21862;SDS011;11096;51.338;12.524;2023-05-10T04:24:58;8.85;;;3.65;;
21862;SDS011;11096;51.338;12.524;2023-05-10T04:27:24;4.97;;;3.58;;
21862;SDS011;11096;51.338;12.524;2023-05-10T04:29:49;6.40;;;3.92;;
21862;SDS011;11096;51.338;12.524;2023-05-10T04:32:15;6.75;;;3.75;;
21862;SDS011;11096;51.338;12.524;2023-05-10T04:34:42;4.85;;;3.92;;
21862;SDS011;11096;51.338;12.524;2023-05-10T04:37:08;6.18;;;3.35;;
21862;SDS011;11096;51.338;12.524;2023-05-10T04:39:33;7.78;;;3.80;;
21862;SDS011;11096;51.338;12.524;2023-05-10T04:42:00;7.00;;;3.85;;
21862;SDS011;11096;51.338;12.524;2023-05-10T04:44:25;6.45;;;3.35;;
21862;SDS011;11096;51.338;12.524;2023-05-10T04:46:51;4.38;;;3.38;;
21862;SDS011;11096;51.338;12.524;2023-05-10T04:49:16;5.57;;;3.17;;
21862;SDS011;11096;51.338;12.524;2023-05-10T04:51:42;4.28;;;3.33;;
21862;SDS011;11096;51.338;12.524;2023-05-10T04:54:08;11.05;;;3.53;;
21862;SDS011;11096;51.338;12.524;2023-05-10T04:56:33;5.05;;;2.90;;
21862;SDS011;11096;51.338;12.524;2023-05-10T04:58:59;4.20;;;2.95;;
21862;SDS011;11096;51.338;12.524;2023-05-10T05:01:24;5.82;;;3.03;;
21862;SDS011;11096;51.338;12.524;2023-05-10T05:03:50;4.50;;;3.13;;
21862;SDS011;11096;51.338;12.524;2023-05-10T05:06:17;3.78;;;2.67;;
21862;SDS011;11096;51.338;12.524;2023-05-10T05:08:43;6.18;;;3.08;;
21862;SDS011;11096;51.338;12.524;2023-05-10T05:11:08;4.82;;;2.75;;
21862;SDS011;11096;51.338;12.524;2023-05-10T05:13:33;8.20;;;2.95;;
21862;SDS011;11096;51.338;12.524;2023-05-10T05:16:00;5.95;;;2.80;;
21862;SDS011;11096;51.338;12.524;2023-05-10T05:18:27;6.43;;;3.40;;
21862;SDS011;11096;51.338;12.524;2023-05-10T05:20:53;5.65;;;3.00;;
21862;SDS011;11096;51.338;12.524;2023-05-10T05:23:18;10.23;;;3.10;;
21862;SDS011;11096;51.338;12.524;2023-05-10T05:25:45;4.45;;;3.15;;
21862;SDS011;11096;51.338;12.524;2023-05-10T05:28:11;4.63;;;3.25;;
21862;SDS011;11096;51.338;12.524;2023-05-10T05:30:36;5.13;;;3.13;;
21862;SDS011;11096;51.338;12.524;2023-05-10T05:33:02;7.85;;;4.25;;
21862;SDS011;11096;51.338;12.524;2023-05-10T05:35:27;4.53;;;3.38;;
21862;SDS011;11096;51.338;12.524;2023-05-10T05:37:53;4.30;;;2.90;;
21862;SDS011;11096;51.338;12.524;2023-05-10T05:40:18;5.80;;;3.00;;
21862;SDS011;11096;51.338;12.524;2023-05-10T05:42:45;5.35;;;2.90;;
21862;SDS011;11096;51.338;12.524;2023-05-10T05:45:10;4.35;;;2.80;;
21862;SDS011;11096;51.338;12.524;2023-05-10T05:47:38;6.82;;;2.88;;
21862;SDS011;11096;51.338;12.524;2023-05-10T05:50:04;4.82;;;2.95;;
21862;SDS011;11096;51.338;12.524;2023-05-10T05:52:30;5.30;;;2.78;;
21862;SDS011;11096;51.338;12.524;2023-05-10T05:54:56;4.47;;;3.03;;
21862;SDS011;11096;51.338;12.524;2023-05-10T05:57:21;4.30;;;3.00;;
21862;SDS011;11096;51.338;12.524;2023-05-10T05:59:46;7.30;;;3.20;;
21862;SDS011;11096;51.338;12.524;2023-05-10T06:02:12;6.38;;;2.90;;
21862;SDS011;11096;51.338;12.524;2023-05-10T06:04:37;7.80;;;3.33;;
21862;SDS011;11096;51.338;12.524;2023-05-10T06:07:03;6.35;;;3.17;;
21862;SDS011;11096;51.338;12.524;2023-05-10T06:09:28;11.07;;;2.78;;
21862;SDS011;11096;51.338;12.524;2023-05-10T06:11:54;8.15;;;3.70;;
21862;SDS011;11096;51.338;12.524;2023-05-10T06:14:22;5.25;;;3.30;;
21862;SDS011;11096;51.338;12.524;2023-05-10T06:16:48;7.75;;;2.92;;
21862;SDS011;11096;51.338;12.524;2023-05-10T06:19:13;6.22;;;2.90;;
21862;SDS011;11096;51.338;12.524;2023-05-10T06:21:39;5.10;;;2.85;;
21862;SDS011;11096;51.338;12.524;2023-05-10T06:24:05;6.20;;;2.80;;
21862;SDS011;11096;51.338;12.524;2023-05-10T06:26:31;4.15;;;2.85;;
21862;SDS011;11096;51.338;12.524;2023-05-10T06:28:57;5.22;;;2.70;;
21862;SDS011;11096;51.338;12.524;2023-05-10T06:31:22;6.80;;;2.72;;
21862;SDS011;11096;51.338;12.524;2023-05-10T06:33:48;4.97;;;3.20;;
21862;SDS011;11096;51.338;12.524;2023-05-10T06:36:13;4.50;;;2.58;;
21862;SDS011;11096;51.338;12.524;2023-05-10T06:38:38;5.35;;;3.03;;
21862;SDS011;11096;51.338;12.524;2023-05-10T06:41:04;4.28;;;2.78;;
21862;SDS011;11096;51.338;12.524;2023-05-10T06:43:30;6.47;;;3.03;;
21862;SDS011;11096;51.338;12.524;2023-05-10T06:45:56;4.88;;;2.80;;
21862;SDS011;11096;51.338;12.524;2023-05-10T06:48:21;10.40;;;2.92;;
21862;SDS011;11096;51.338;12.524;2023-05-10T06:50:47;7.03;;;3.28;;
21862;SDS011;11096;51.338;12.524;2023-05-10T06:53:12;5.85;;;3.30;;
21862;SDS011;11096;51.338;12.524;2023-05-10T06:55:38;4.47;;;3.03;;
21862;SDS011;11096;51.338;12.524;2023-05-10T06:58:04;3.78;;;2.88;;
21862;SDS011;11096;51.338;12.524;2023-05-10T07:00:30;7.47;;;3.38;;
21862;SDS011;11096;51.338;12.524;2023-05-10T07:02:55;6.20;;;3.00;;
21862;SDS011;11096;51.338;12.524;2023-05-10T07:05:21;3.83;;;2.67;;
21862;SDS011;11096;51.338;12.524;2023-05-10T07:07:46;5.90;;;2.92;;
21862;SDS011;11096;51.338;12.524;2023-05-10T07:10:12;4.80;;;3.10;;
21862;SDS011;11096;51.338;12.524;2023-05-10T07:12:38;8.98;;;2.55;;
21862;SDS011;11096;51.338;12.524;2023-05-10T07:15:04;5.70;;;2.55;;
21862;SDS011;11096;51.338;12.524;2023-05-10T07:17:29;6.88;;;2.72;;
21862;SDS011;11096;51.338;12.524;2023-05-10T07:19:55;5.82;;;2.65;;
21862;SDS011;11096;51.338;12.524;2023-05-10T07:22:20;5.10;;;2.50;;
21862;SDS011;11096;51.338;12.524;2023-05-10T07:24:46;3.13;;;2.72;;
21862;SDS011;11096;51.338;12.524;2023-05-10T07:27:11;4.40;;;3.05;;
21862;SDS011;11096;51.338;12.524;2023-05-10T07:29:38;4.57;;;2.10;;
21862;SDS011;11096;51.338;12.524;2023-05-10T07:32:03;4.20;;;2.70;;
21862;SDS011;11096;51.338;12.524;2023-05-10T07:34:29;7.88;;;2.60;;
21862;SDS011;11096;51.338;12.524;2023-05-10T07:36:56;8.10;;;2.45;;
21862;SDS011;11096;51.338;12.524;2023-05-10T07:39:23;6.38;;;2.30;;
21862;SDS011;11096;51.338;12.524;2023-05-10T07:41:48;8.73;;;2.53;;
21862;SDS011;11096;51.338;12.524;2023-05-10T07:44:14;5.13;;;2.45;;
21862;SDS011;11096;51.338;12.524;2023-05-10T07:46:39;3.20;;;2.42;;
21862;SDS011;11096;51.338;12.524;2023-05-10T07:49:05;4.00;;;2.92;;
21862;SDS011;11096;51.338;12.524;2023-05-10T07:51:30;2.70;;;2.35;;
21862;SDS011;11096;51.338;12.524;2023-05-10T07:53:56;3.05;;;2.63;;
21862;SDS011;11096;51.338;12.524;2023-05-10T07:56:23;4.88;;;3.05;;
21862;SDS011;11096;51.338;12.524;2023-05-10T07:58:52;2.35;;;2.15;;
21862;SDS011;11096;51.338;12.524;2023-05-10T08:01:18;4.13;;;2.92;;
21862;SDS011;11096;51.338;12.524;2023-05-10T08:03:43;3.00;;;2.35;;
21862;SDS011;11096;51.338;12.524;2023-05-10T08:06:09;3.38;;;2.38;;
21862;SDS011;11096;51.338;12.524;2023-05-10T08:08:34;2.90;;;2.60;;
21862;SDS011;11096;51.338;12.524;2023-05-10T08:10:59;5.03;;;2.55;;
21862;SDS011;11096;51.338;12.524;2023-05-10T08:13:25;3.40;;;2.42;;
21862;SDS011;11096;51.338;12.524;2023-05-10T08:15:50;7.50;;;2.67;;
21862;SDS011;11096;51.338;12.524;2023-05-10T08:18:18;3.63;;;2.50;;
21862;SDS011;11096;51.338;12.524;2023-05-10T08:20:43;3.95;;;2.67;;
21862;SDS011;11096;51.338;12.524;2023-05-10T08:23:09;4.72;;;2.78;;
21862;SDS011;11096;51.338;12.524;2023-05-10T08:25:34;4.38;;;2.55;;
21862;SDS011;11096;51.338;12.524;2023-05-10T08:28:00;4.72;;;3.00;;
21862;SDS011;11096;51.338;12.524;2023-05-10T08:30:25;3.42;;;2.58;;
21862;SDS011;11096;51.338;12.524;2023-05-10T08:32:50;6.00;;;2.83;;
21862;SDS011;11096;51.338;12.524;2023-05-10T08:35:16;6.38;;;2.85;;
21862;SDS011;11096;51.338;12.524;2023-05-10T08:37:41;5.07;;;3.25;;
21862;SDS011;11096;51.338;12.524;2023-05-10T08:40:07;5.50;;;3.70;;
21862;SDS011;11096;51.338;12.524;2023-05-10T08:42:36;6.75;;;3.22;;
21862;SDS011;11096;51.338;12.524;2023-05-10T08:45:06;5.95;;;3.00;;
21862;SDS011;11096;51.338;12.524;2023-05-10T08:47:33;3.63;;;3.10;;
21862;SDS011;11096;51.338;12.524;2023-05-10T08:50:01;5.10;;;3.10;;
21862;SDS011;11096;51.338;12.524;2023-05-10T08:52:28;3.75;;;3.20;;
21862;SDS011;11096;51.338;12.524;2023-05-10T08:54:55;4.57;;;3.10;;
21862;SDS011;11096;51.338;12.524;2023-05-10T08:57:21;5.10;;;3.40;;
21862;SDS011;11096;51.338;12.524;2023-05-10T08:59:47;6.72;;;2.90;;
21862;SDS011;11096;51.338;12.524;2023-05-10T09:02:13;5.97;;;3.38;;
21862;SDS011;11096;51.338;12.524;2023-05-10T09:04:39;6.05;;;3.58;;
21862;SDS011;11096;51.338;12.524;2023-05-10T09:07:04;5.88;;;3.25;;
21862;SDS011;11096;51.338;12.524;2023-05-10T09:09:31;6.03;;;3.45;;
21862;SDS011;11096;51.338;12.524;2023-05-10T09:11:57;5.75;;;3.17;;
21862;SDS011;11096;51.338;12.524;2023-05-10T09:14:23;5.68;;;3.78;;
21862;SDS011;11096;51.338;12.524;2023-05-10T09:16:49;6.53;;;3.28;;
21862;SDS011;11096;51.338;12.524;2023-05-10T09:19:15;7.53;;;3.83;;
21862;SDS011;11096;51.338;12.524;2023-05-10T09:21:40;3.92;;;3.20;;
21862;SDS011;11096;51.338;12.524;2023-05-10T09:24:06;5.47;;;3.47;;
21862;SDS011;11096;51.338;12.524;2023-05-10T09:26:33;3.92;;;2.92;;
21862;SDS011;11096;51.338;12.524;2023-05-10T09:29:00;5.55;;;3.33;;
21862;SDS011;11096;51.338;12.524;2023-05-10T09:34:20;6.85;;;3.97;;
21862;SDS011;11096;51.338;12.524;2023-05-10T09:39:20;7.50;;;4.18;;
21862;SDS011;11096;51.338;12.524;2023-05-10T09:41:45;5.80;;;3.47;;
21862;SDS011;11096;51.338;12.524;2023-05-10T09:44:12;5.80;;;3.92;;
21862;SDS011;11096;51.338;12.524;2023-05-10T09:46:42;8.85;;;4.28;;
21862;SDS011;11096;51.338;12.524;2023-05-10T09:49:08;5.10;;;3.90;;
21862;SDS011;11096;51.338;12.524;2023-05-10T09:51:34;5.25;;;4.10;;
21862;SDS011;11096;51.338;12.524;2023-05-10T09:54:09;4.45;;;3.75;;
21862;SDS011;11096;51.338;12.524;2023-05-10T09:56:36;4.75;;;4.07;;
21862;SDS011;11096;51.338;12.524;2023-05-10T09:59:04;4.93;;;4.38;;
21862;SDS011;11096;51.338;12.524;2023-05-10T10:01:30;6.30;;;4.97;;
21862;SDS011;11096;51.338;12.524;2023-05-10T10:03:56;6.88;;;5.22;;
21862;SDS011;11096;51.338;12.524;2023-05-10T10:06:23;8.32;;;5.65;;
21862;SDS011;11096;51.338;12.524;2023-05-10T10:08:49;9.00;;;6.30;;
21862;SDS011;11096;51.338;12.524;2023-05-10T10:11:15;8.73;;;6.28;;
21862;SDS011;11096;51.338;12.524;2023-05-10T10:13:41;9.93;;;6.18;;
21862;SDS011;11096;51.338;12.524;2023-05-10T10:16:07;8.93;;;6.60;;
21862;SDS011;11096;51.338;12.524;2023-05-10T10:18:34;12.50;;;7.00;;
21862;SDS011;11096;51.338;12.524;2023-05-10T10:21:04;9.80;;;6.90;;
21862;SDS011;11096;51.338;12.524;2023-05-10T10:23:36;9.20;;;6.80;;
21862;SDS011;11096;51.338;12.524;2023-05-10T10:26:02;11.52;;;7.55;;
21862;SDS011;11096;51.338;12.524;2023-05-10T10:34:28;9.32;;;6.50;;
21862;SDS011;11096;51.338;12.524;2023-05-10T10:36:55;10.77;;;7.07;;
21862;SDS011;11096;51.338;12.524;2023-05-10T10:39:21;12.82;;;7.90;;
21862;SDS011;11096;51.338;12.524;2023-05-10T10:49:31;12.70;;;8.30;;
21862;SDS011;11096;51.338;12.524;2023-05-10T10:54:39;11.70;;;7.80;;
21862;SDS011;11096;51.338;12.524;2023-05-10T10:57:11;13.77;;;8.27;;
21862;SDS011;11096;51.338;12.524;2023-05-10T10:59:44;11.15;;;9.07;;
21862;SDS011;11096;51.338;12.524;2023-05-10T11:02:10;14.70;;;8.95;;
21862;SDS011;11096;51.338;12.524;2023-05-10T11:04:55;12.45;;;9.32;;
21862;SDS011;11096;51.338;12.524;2023-05-10T11:07:21;14.10;;;9.10;;
21862;SDS011;11096;51.338;12.524;2023-05-10T11:09:49;9.75;;;7.22;;
21862;SDS011;11096;51.338;12.524;2023-05-10T11:12:15;11.10;;;8.40;;
21862;SDS011;11096;51.338;12.524;2023-05-10T11:14:40;10.23;;;7.68;;
21862;SDS011;11096;51.338;12.524;2023-05-10T11:20:07;13.90;;;8.05;;
21862;SDS011;11096;51.338;12.524;2023-05-10T11:22:53;13.20;;;8.35;;
21862;SDS011;11096;51.338;12.524;2023-05-10T11:25:19;15.65;;;8.70;;
21862;SDS011;11096;51.338;12.524;2023-05-10T11:27:46;11.50;;;7.75;;
21862;SDS011;11096;51.338;12.524;2023-05-10T11:30:13;11.60;;;8.38;;
21862;SDS011;11096;51.338;12.524;2023-05-10T11:32:40;11.95;;;8.55;;
21862;SDS011;11096;51.338;12.524;2023-05-10T11:35:09;14.48;;;8.07;;
21862;SDS011;11096;51.338;12.524;2023-05-10T11:37:36;12.25;;;8.35;;
21862;SDS011;11096;51.338;12.524;2023-05-10T11:40:02;9.82;;;7.20;;
21862;SDS011;11096;51.338;12.524;2023-05-10T11:42:28;10.43;;;8.25;;
21862;SDS011;11096;51.338;12.524;2023-05-10T11:44:54;13.68;;;8.90;;
21862;SDS011;11096;51.338;12.524;2023-05-10T11:47:19;13.05;;;8.98;;
21862;SDS011;11096;51.338;12.524;2023-05-10T11:49:45;11.82;;;9.30;;
21862;SDS011;11096;51.338;12.524;2023-05-10T11:52:11;11.55;;;8.68;;
21862;SDS011;11096;51.338;12.524;2023-05-10T11:54:37;14.65;;;9.02;;
21862;SDS011;11096;51.338;12.524;2023-05-10T11:57:03;12.25;;;9.13;;
21862;SDS011;11096;51.338;12.524;2023-05-10T11:59:28;14.75;;;9.57;;
21862;SDS011;11096;51.338;12.524;2023-05-10T12:01:54;16.77;;;9.70;;
21862;SDS011;11096;51.338;12.524;2023-05-10T12:04:20;14.98;;;10.20;;
21862;SDS011;11096;51.338;12.524;2023-05-10T12:06:45;15.93;;;10.90;;
21862;SDS011;11096;51.338;12.524;2023-05-10T12:09:11;13.57;;;10.00;;
21862;SDS011;11096;51.338;12.524;2023-05-10T12:11:40;14.60;;;9.55;;
21862;SDS011;11096;51.338;12.524;2023-05-10T12:14:06;13.07;;;9.15;;
21862;SDS011;11096;51.338;12.524;2023-05-10T12:16:33;19.00;;;11.35;;
21862;SDS011;11096;51.338;12.524;2023-05-10T12:18:59;16.30;;;11.25;;
21862;SDS011;11096;51.338;12.524;2023-05-10T12:21:25;18.45;;;11.75;;
21862;SDS011;11096;51.338;12.524;2023-05-10T12:23:53;15.02;;;10.80;;
21862;SDS011;11096;51.338;12.524;2023-05-10T12:26:22;17.20;;;11.38;;
21862;SDS011;11096;51.338;12.524;2023-05-10T12:28:49;15.70;;;10.73;;
21862;SDS011;11096;51.338;12.524;2023-05-10T12:31:15;15.68;;;10.73;;
21862;SDS011;11096;51.338;12.524;2023-05-10T12:33:43;18.90;;;10.93;;
21862;SDS011;11096;51.338;12.524;2023-05-10T12:36:10;15.93;;;10.63;;
21862;SDS011;11096;51.338;12.524;2023-05-10T12:38:38;15.80;;;11.13;;
21862;SDS011;11096;51.338;12.524;2023-05-10T12:41:08;16.92;;;11.48;;
21862;SDS011;11096;51.338;12.524;2023-05-10T12:43:35;15.23;;;10.35;;
21862;SDS011;11096;51.338;12.524;2023-05-10T12:46:05;16.90;;;10.80;;
21862;SDS011;11096;51.338;12.524;2023-05-10T12:48:31;12.65;;;9.15;;
21862;SDS011;11096;51.338;12.524;2023-05-10T12:50:56;13.07;;;9.27;;
21862;SDS011;11096;51.338;12.524;2023-05-10T12:53:22;13.60;;;10.15;;
21862;SDS011;11096;51.338;12.524;2023-05-10T12:55:47;11.80;;;8.80;;
21862;SDS011;11096;51.338;12.524;2023-05-10T12:58:13;13.05;;;9.45;;
21862;SDS011;11096;51.338;12.524;2023-05-10T13:00:39;12.30;;;8.75;;
21862;SDS011;11096;51.338;12.524;2023-05-10T13:03:04;12.65;;;9.25;;
21862;SDS011;11096;51.338;12.524;2023-05-10T13:05:31;12.60;;;9.70;;
21862;SDS011;11096;51.338;12.524;2023-05-10T13:08:00;11.20;;;8.05;;
21862;SDS011;11096;51.338;12.524;2023-05-10T13:10:25;12.60;;;8.50;;
21862;SDS011;11096;51.338;12.524;2023-05-10T13:12:51;10.15;;;7.95;;
21862;SDS011;11096;51.338;12.524;2023-05-10T13:15:16;11.07;;;8.52;;
21862;SDS011;11096;51.338;12.524;2023-05-10T13:17:42;10.70;;;7.47;;
21862;SDS011;11096;51.338;12.524;2023-05-10T13:20:08;11.23;;;8.00;;
21862;SDS011;11096;51.338;12.524;2023-05-10T13:22:36;9.45;;;7.10;;
21862;SDS011;11096;51.338;12.524;2023-05-10T13:25:02;8.85;;;6.50;;
21862;SDS011;11096;51.338;12.524;2023-05-10T13:27:27;8.85;;;7.18;;
21862;SDS011;11096;51.338;12.524;2023-05-10T13:29:53;7.80;;;6.40;;
21862;SDS011;11096;51.338;12.524;2023-05-10T13:32:19;7.90;;;6.72;;
21862;SDS011;11096;51.338;12.524;2023-05-10T13:34:45;8.73;;;7.10;;
21862;SDS011;11096;51.338;12.524;2023-05-10T13:37:10;8.40;;;6.25;;
21862;SDS011;11096;51.338;12.524;2023-05-10T13:39:36;7.50;;;5.82;;
21862;SDS011;11096;51.338;12.524;2023-05-10T13:42:02;8.25;;;6.22;;
21862;SDS011;11096;51.338;12.524;2023-05-10T13:44:28;5.85;;;5.22;;
21862;SDS011;11096;51.338;12.524;2023-05-10T13:46:54;5.90;;;4.88;;
21862;SDS011;11096;51.338;12.524;2023-05-10T13:49:20;6.38;;;5.30;;
21862;SDS011;11096;51.338;12.524;2023-05-10T13:51:46;7.63;;;4.60;;
21862;SDS011;11096;51.338;12.524;2023-05-10T13:54:11;4.75;;;4.03;;
21862;SDS011;11096;51.338;12.524;2023-05-10T13:56:37;6.50;;;4.90;;
21862;SDS011;11096;51.338;12.524;2023-05-10T13:59:02;5.63;;;4.63;;
21862;SDS011;11096;51.338;12.524;2023-05-10T14:01:28;6.93;;;5.70;;
21862;SDS011;11096;51.338;12.524;2023-05-10T14:03:53;5.90;;;4.55;;
21862;SDS011;11096;51.338;12.524;2023-05-10T14:06:19;7.80;;;5.25;;
21862;SDS011;11096;51.338;12.524;2023-05-10T14:08:44;7.20;;;5.70;;
21862;SDS011;11096;51.338;12.524;2023-05-10T14:11:10;6.72;;;5.63;;
21862;SDS011;11096;51.338;12.524;2023-05-10T14:13:36;7.68;;;5.28;;
21862;SDS011;11096;51.338;12.524;2023-05-10T14:16:01;5.95;;;4.78;;
21862;SDS011;11096;51.338;12.524;2023-05-10T14:18:27;7.90;;;5.68;;
21862;SDS011;11096;51.338;12.524;2023-05-10T14:20:53;7.20;;;4.72;;
21862;SDS011;11096;51.338;12.524;2023-05-10T14:23:18;6.63;;;4.93;;
21862;SDS011;11096;51.338;12.524;2023-05-10T14:25:49;6.53;;;3.80;;
21862;SDS011;11096;51.338;12.524;2023-05-10T14:28:16;6.97;;;3.50;;
21862;SDS011;11096;51.338;12.524;2023-05-10T14:30:42;4.15;;;2.97;;
21862;SDS011;11096;51.338;12.524;2023-05-10T14:33:08;4.30;;;3.13;;
21862;SDS011;11096;51.338;12.524;2023-05-10T14:35:33;3.10;;;2.70;;
21862;SDS011;11096;51.338;12.524;2023-05-10T14:37:59;2.45;;;2.25;;
21862;SDS011;11096;51.338;12.524;2023-05-10T14:40:24;3.13;;;2.83;;
21862;SDS011;11096;51.338;12.524;2023-05-10T14:42:50;4.20;;;2.78;;
21862;SDS011;11096;51.338;12.524;2023-05-10T14:45:15;3.25;;;2.70;;
21862;SDS011;11096;51.338;12.524;2023-05-10T14:47:41;2.92;;;2.00;;
21862;SDS011;11096;51.338;12.524;2023-05-10T14:50:07;3.25;;;2.55;;
21862;SDS011;11096;51.338;12.524;2023-05-10T14:52:32;3.28;;;2.97;;
21862;SDS011;11096;51.338;12.524;2023-05-10T14:54:58;3.97;;;3.33;;
21862;SDS011;11096;51.338;12.524;2023-05-10T14:57:25;3.15;;;2.80;;
21862;SDS011;11096;51.338;12.524;2023-05-10T14:59:50;4.10;;;3.60;;
21862;SDS011;11096;51.338;12.524;2023-05-10T15:02:16;5.00;;;3.80;;
21862;SDS011;11096;51.338;12.524;2023-05-10T15:04:41;5.35;;;3.88;;
21862;SDS011;11096;51.338;12.524;2023-05-10T15:07:06;4.68;;;3.60;;
21862;SDS011;11096;51.338;12.524;2023-05-10T15:09:32;6.28;;;4.80;;
21862;SDS011;11096;51.338;12.524;2023-05-10T15:11:57;6.70;;;4.93;;
21862;SDS011;11096;51.338;12.524;2023-05-10T15:14:23;5.78;;;4.97;;